Skip to main content

NOAA/GLERL Met Station at Muskegon, MI

Previous 3 Hours (2 minute increments)
See also Previous 5 Days (top of hour)
Jump down to Data
Switch to [English][Metric]
Zoom: Click and drag, Pan: shift-click and drag, Unzoom: double-click, Unzoom All






See also 1-day windrose plot


NOAA/GLERL Met Station at Muskegon, MI

Previous 3 Hours (2 minute increments)
See also Previous 5 Days (top of hour only)
Jump up to Graphs
Switch to [English][Metric]
                  Wind  Wind  Wind   Air   Dew   Rel     Sta   PAR
                   Spd   Gst   Dir  Temp    Pt   Hum    Pres uE/m2/
YYYY-MM-DD   EDT   kts   kts   deg     F     F     %   in Hg   sec
2020-07-12 13:40  15.2  18.9   353  65.3  56.6  73.1   29.25  1464
2020-07-12 13:38  19.6  23.5   348  65.1  56.8  74.0   29.25  1700
2020-07-12 13:36  18.7  22.0   351  65.3  56.6  73.0   29.25  1394
2020-07-12 13:20  16.9  20.0   359  65.7  57.2  73.9   29.24  2182
2020-07-12 13:18  21.0  24.9   351  65.1  57.4  75.9   29.24  1912
2020-07-12 13:16  21.4  27.0   346  65.1  57.8  76.8   29.24  1600
2020-07-12 13:14  17.7  22.0   347  65.7  57.7  75.1   29.24   995
2020-07-12 13:12  14.6  20.2   352  64.9  57.8  77.3   29.24  1769
2020-07-12 13:10  19.2  22.6   347  64.9  57.8  77.5   29.24   891
2020-07-12 13:08  17.9  21.4   346  65.5  57.9  76.1   29.24  1198
2020-07-12 13:06  16.7  19.4   347  64.9  57.7  77.2   29.24  1919
2020-07-12 13:04  18.1  21.2   348  64.9  57.5  76.4   29.24  1376
2020-07-12 13:02  16.3  19.1   348  65.7  57.7  75.1   29.23   686
2020-07-12 13:00  14.8  19.2   351  66.0  58.0  74.9   29.23  1924
2020-07-12 12:58  14.6  18.1   348  66.2  57.9  74.3   29.23  1895
2020-07-12 12:56  13.2  16.7   352  65.8  58.2  76.0   29.23  1879
2020-07-12 12:54  16.7  19.1   347  65.8  58.0  75.5   29.24  1885
2020-07-12 12:52  16.3  18.7   346  65.8  57.9  75.2   29.24  1889
2020-07-12 12:50  15.7  18.5   354  65.8  58.4  76.7   29.24  1804
2020-07-12 12:48  15.9  18.7   348  65.8  58.3  76.4   29.24  1920
2020-07-12 12:46  16.5  18.9   348  66.2  58.1  74.8   29.24  1903
2020-07-12 12:44  14.6  17.9   352  66.4  58.3  74.9   29.24  1909
2020-07-12 12:42  16.3  18.7   351  66.0  58.4  76.1   29.24  1893
2020-07-12 12:40  14.2  17.5   353  66.0  58.6  76.6   29.24  1804
2020-07-12 12:38  16.1  18.7   348  66.0  58.6  76.8   29.24  1870
2020-07-12 12:36  14.8  17.9   350  66.2  58.5  76.0   29.24  1851
2020-07-12 12:34  15.9  19.1   350  66.4  58.6  75.8   29.24  1848
2020-07-12 12:32  16.7  19.4   353  66.4  58.6  75.8   29.24  1859
2020-07-12 12:30  16.9  20.6   354  66.6  58.8  75.9   29.24  1866
2020-07-12 12:28  15.2  19.1   347  66.6  59.1  76.7   29.24  1852
2020-07-12 12:26  15.4  18.1   351  66.4  59.2  77.5   29.24  1840
2020-07-12 12:24  15.0  17.7   352  66.4  59.2  77.5   29.24  1833
2020-07-12 12:22  16.1  17.9   348  66.4  59.3  77.7   29.24  1829
2020-07-12 12:20  14.2  17.5   351  66.6  59.6  78.0   29.24  1830
2020-07-12 12:18  14.2  17.9   347  66.6  59.6  77.9   29.24  1834
2020-07-12 12:16  16.5  19.2   350  66.4  59.4  77.8   29.24  1837
2020-07-12 12:14  16.3  19.8   348  66.4  59.5  78.2   29.24  1827
2020-07-12 12:12  14.2  17.3   349  66.4  59.4  77.8   29.24  1828
2020-07-12 12:10  15.2  17.5   351  66.6  59.3  77.3   29.24  1831
2020-07-12 12:08  14.6  16.7   351  66.9  59.7  77.2   29.24  1836
2020-07-12 12:06  16.3  19.2   349  66.9  59.5  76.7   29.24  1854
2020-07-12 12:04  16.1  18.3   352  66.9  59.6  77.0   29.24  1871
2020-07-12 12:02  16.3  18.7   352  66.9  59.7  77.4   29.24  1870
2020-07-12 12:00  15.2  18.3   349  67.1  60.3  78.6   29.24  1864
2020-07-12 11:58  15.6  18.3   350  67.1  60.4  78.7   29.24  1862
2020-07-12 11:56  15.6  19.1   346  67.3  60.5  78.5   29.24  1863
2020-07-12 11:54  14.8  16.7   347  67.3  60.2  77.8   29.24  1854
2020-07-12 11:52  13.8  17.7   351  67.5  60.2  77.3   29.24  1849
2020-07-12 11:50  13.0  15.0   354  67.6  60.6  77.9   29.24  1243
2020-07-12 11:48  12.8  15.9   349  67.5  60.5  78.1   29.24  1881
2020-07-12 11:46  14.6  16.5   347  67.5  60.5  78.0   29.24  1884
2020-07-12 11:44  16.9  18.5   345  67.6  60.6  77.9   29.24  1869
2020-07-12 11:42  16.3  17.9   347  67.6  60.9  78.7   29.24  1627
2020-07-12 11:40  15.2  16.9   343  67.5  60.5  78.0   29.24  1895
2020-07-12 11:38  12.2  15.6   345  67.6  60.5  77.5   29.24  1885
2020-07-12 11:36  12.1  14.4   349  67.6  60.8  78.4   29.24  1917
2020-07-12 11:34  14.2  15.7   342  67.6  61.0  79.0   29.24  1564
2020-07-12 11:32  15.4  16.9   340  68.0  61.2  78.6   29.24  1014
2020-07-12 11:30  14.0  15.6   343  68.2  61.4  78.6   29.24  1529
2020-07-12 11:28  11.3  12.6   342  68.5  61.2  77.1   29.24  1853
2020-07-12 11:26  12.4  14.0   340  68.5  61.5  77.8   29.24  1837
2020-07-12 11:24  10.9  12.4   337  68.5  60.8  75.9   29.24  1802
2020-07-12 11:22   9.1  12.4   344  68.7  60.3  74.1   29.24  1798
2020-07-12 11:20  10.7  15.7   354  68.7  60.5  74.6   29.24  1795
2020-07-12 11:18  12.6  15.9   343  68.7  61.1  76.3   29.24  1792
2020-07-12 11:16  10.7  12.1   339  68.7  61.1  76.2   29.24  1780
2020-07-12 11:14   8.4   9.9   343  68.9  60.6  74.5   29.24  1772
2020-07-12 11:12  10.1  12.4   348  68.5  60.2  74.4   29.24  1772
2020-07-12 11:10  10.5  12.6   347  68.5  60.7  75.6   29.24  1774
2020-07-12 11:08  12.4  14.2   343  68.9  60.7  74.7   29.24  1648
2020-07-12 11:06  13.6  15.6   343  68.9  60.6  74.6   29.23  1782
2020-07-12 11:04  11.7  15.7   342  69.4  60.3  72.4   29.23  1767
2020-07-12 11:02   9.1  11.5   348  69.6  59.8  70.5   29.23  1761
2020-07-12 11:00  10.3  13.8   349  70.2  60.8  71.9   29.23  1756
2020-07-12 10:58   8.0  11.3   357  70.2  59.7  69.1   29.23  1755
2020-07-12 10:56  10.3  12.6   355  69.4  61.0  74.1   29.23  1612
2020-07-12 10:54  11.5  12.6   343  70.0  61.5  74.0   29.23  1774
2020-07-12 10:52  12.2  13.6   343  71.1  60.6  69.0   29.23  1730
2020-07-12 10:50  11.5  15.0   358  70.2  58.7  66.5   29.23  1782
2020-07-12 10:48  10.1  13.4   354  69.3  60.0  72.0   29.23  1568
2020-07-12 10:46  10.5  12.4   347  69.6  60.2  71.7   29.23  1658
2020-07-12 10:44  11.3  15.2   354  69.6  59.4  69.5   29.23  1731
2020-07-12 10:42  10.7  12.8   353  70.2  59.6  68.7   29.23  1593
2020-07-12 10:40   8.7  12.1   360  69.3  59.7  71.2   29.23  1752
2020-07-12 10:38   9.1  11.1   343  68.9  60.6  74.4   29.24  1735
2020-07-12 10:36   8.4  10.5   338  68.7  60.2  73.9   29.24  1717
2020-07-12 10:34  10.7  12.4   346  68.5  60.9  76.3   29.24  1717
2020-07-12 10:32  10.7  12.4   341  68.5  60.4  75.0   29.24  1708
2020-07-12 10:30  10.1  11.9   343  68.9  60.7  74.7   29.24  1245
2020-07-12 10:28   9.7  12.2   349  68.7  60.1  73.7   29.24  1178
2020-07-12 10:26  10.1  13.0   349  68.5  60.7  75.8   29.24  1713